Time;durP1;ratioP1;P1;durP2;ratioP2;P2;SDS_P1;SDS_P2;PMS_P1;PMS_P2;Temp;Humidity;BMP_temperature;BMP_pressure;BME280_temperature;BME280_humidity;BME280_pressure;Samples;Min_cycle;Max_cycle;Signal;HPM_P1;HPM_P2
2023/02/11 00:00:23;;;;;;;3.73;3.00;;;;;;;;;;5092301;28;20020;-60
2023/02/11 00:02:49;;;;;;;7.43;3.30;;;;;;;;;;5095242;28;20032;-60
2023/02/11 00:05:16;;;;;;;5.97;2.90;;;;;;;;;;5113183;28;20431;-61
2023/02/11 00:07:43;;;;;;;5.23;3.20;;;;;;;;;;5109260;28;20134;-61
2023/02/11 00:10:09;;;;;;;18.83;3.83;;;;;;;;;;5103573;28;20628;-61
2023/02/11 00:12:37;;;;;;;4.93;3.13;;;;;;;;;;5087587;28;20028;-61
2023/02/11 00:15:04;;;;;;;3.50;2.43;;;;;;;;;;5087359;28;20070;-61
2023/02/11 00:17:32;;;;;;;5.00;2.83;;;;;;;;;;5090158;28;20031;-60
2023/02/11 00:19:58;;;;;;;4.40;3.10;;;;;;;;;;5092955;28;20103;-60
2023/02/11 00:22:25;;;;;;;4.60;3.30;;;;;;;;;;5111826;28;20036;-61
2023/02/11 00:24:52;;;;;;;5.30;3.27;;;;;;;;;;5112989;28;20028;-60
2023/02/11 00:27:18;;;;;;;7.87;3.60;;;;;;;;;;5112858;28;20030;-61
2023/02/11 00:29:45;;;;;;;4.83;3.20;;;;;;;;;;5109475;28;20081;-61
2023/02/11 00:32:12;;;;;;;3.93;2.77;;;;;;;;;;5090186;28;20059;-60
2023/02/11 00:34:38;;;;;;;3.23;2.67;;;;;;;;;;5087138;28;20028;-61
2023/02/11 00:37:05;;;;;;;3.00;2.47;;;;;;;;;;5088855;28;20039;-60
2023/02/11 00:39:32;;;;;;;4.10;3.07;;;;;;;;;;5096808;28;20051;-61
2023/02/11 00:41:59;;;;;;;3.83;2.77;;;;;;;;;;5112719;28;20016;-60
2023/02/11 00:44:26;;;;;;;18.70;3.80;;;;;;;;;;5110602;28;20036;-60
2023/02/11 00:46:52;;;;;;;3.20;2.70;;;;;;;;;;5107861;28;20020;-61
2023/02/11 00:49:19;;;;;;;4.33;2.73;;;;;;;;;;5092351;28;20027;-61
2023/02/11 00:51:46;;;;;;;4.50;3.23;;;;;;;;;;5089447;28;20107;-61
2023/02/11 00:54:13;;;;;;;4.03;2.70;;;;;;;;;;5091278;28;20410;-60
2023/02/11 00:56:39;;;;;;;3.20;2.60;;;;;;;;;;5099452;28;20444;-60
2023/02/11 00:59:06;;;;;;;8.43;3.43;;;;;;;;;;5107356;28;20030;-60
2023/02/11 01:01:33;;;;;;;5.13;3.30;;;;;;;;;;5108638;28;20028;-61
2023/02/11 01:04:00;;;;;;;4.27;2.63;;;;;;;;;;5099872;28;20100;-60
2023/02/11 01:06:26;;;;;;;4.43;3.10;;;;;;;;;;5096318;28;20453;-60
2023/02/11 01:08:53;;;;;;;4.50;3.07;;;;;;;;;;5100275;28;20026;-60
2023/02/11 01:11:20;;;;;;;3.97;2.97;;;;;;;;;;5116238;28;20508;-60
2023/02/11 01:13:48;;;;;;;5.20;3.27;;;;;;;;;;5114647;28;20477;-60
2023/02/11 01:16:14;;;;;;;3.03;2.47;;;;;;;;;;5103670;28;20028;-61
2023/02/11 01:18:43;;;;;;;2.80;2.30;;;;;;;;;;5079110;28;20551;-60
2023/02/11 01:21:10;;;;;;;14.40;3.87;;;;;;;;;;5091057;28;20043;-60
2023/02/11 01:23:36;;;;;;;3.63;2.63;;;;;;;;;;5091861;28;20356;-60
2023/02/11 01:26:03;;;;;;;6.57;3.23;;;;;;;;;;5104194;28;20027;-60
2023/02/11 01:28:30;;;;;;;7.13;3.83;;;;;;;;;;5115478;28;20110;-60
2023/02/11 01:30:57;;;;;;;5.03;3.03;;;;;;;;;;5101161;28;20032;-60
2023/02/11 01:33:24;;;;;;;6.80;3.63;;;;;;;;;;5095883;28;20031;-60
2023/02/11 01:35:51;;;;;;;9.20;3.33;;;;;;;;;;5097076;28;20023;-60
2023/02/11 01:38:19;;;;;;;3.97;2.80;;;;;;;;;;5103109;28;20024;-60
2023/02/11 01:40:53;;;;;;;5.43;2.87;;;;;;;;;;5090445;28;20035;-60
2023/02/11 01:43:20;;;;;;;6.15;3.05;;;;;;;;;;5090236;28;20032;-60
2023/02/11 01:45:50;;;;;;;7.70;3.40;;;;;;;;;;5092392;28;20028;-60
2023/02/11 01:48:21;;;;;;;3.87;3.00;;;;;;;;;;5096477;28;20024;-60
2023/02/11 01:50:50;;;;;;;9.23;3.97;;;;;;;;;;5095567;28;20027;-60
2023/02/11 01:58:51;;;;;;;9.67;4.23;;;;;;;;;;5073144;28;20048;-60
2023/02/11 02:01:22;;;;;;;6.20;4.00;;;;;;;;;;5069752;28;20563;-60
2023/02/11 02:03:50;;;;;;;4.67;2.93;;;;;;;;;;5084634;28;20049;-60
2023/02/11 02:06:21;;;;;;;4.43;3.10;;;;;;;;;;5090343;28;20020;-60
2023/02/11 02:08:52;;;;;;;4.70;3.30;;;;;;;;;;5097695;28;20103;-59
2023/02/11 02:11:19;;;;;;;8.27;3.17;;;;;;;;;;5115613;28;20068;-60
2023/02/11 02:13:48;;;;;;;3.37;2.57;;;;;;;;;;5114541;28;20032;-60
2023/02/11 02:16:16;;;;;;;4.53;3.43;;;;;;;;;;5115444;28;20107;-60
2023/02/11 02:18:50;;;;;;;4.17;2.80;;;;;;;;;;5115844;28;20015;-61
2023/02/11 02:21:17;;;;;;;7.87;3.20;;;;;;;;;;5103212;28;20439;-61
2023/02/11 02:23:47;;;;;;;4.27;3.20;;;;;;;;;;5091551;28;20114;-60
2023/02/11 02:26:22;;;;;;;4.70;2.63;;;;;;;;;;5091822;28;20024;-60
2023/02/11 02:29:05;;;;;;;4.33;3.17;;;;;;;;;;5104276;28;20028;-61
2023/02/11 02:31:50;;;;;;;7.00;3.33;;;;;;;;;;5110016;28;20024;-60
2023/02/11 02:34:34;;;;;;;3.97;2.47;;;;;;;;;;5113618;28;20015;-61
2023/02/11 02:37:25;;;;;;;3.00;2.47;;;;;;;;;;5112848;28;20035;-61
2023/02/11 02:39:55;;;;;;;6.43;2.87;;;;;;;;;;5113067;28;20482;-60
2023/02/11 02:42:28;;;;;;;4.57;3.10;;;;;;;;;;5097127;28;20112;-61
2023/02/11 02:44:56;;;;;;;4.27;3.03;;;;;;;;;;5113879;28;20032;-60
2023/02/11 02:47:23;;;;;;;4.13;2.27;;;;;;;;;;5114734;28;20077;-60
2023/02/11 02:49:54;;;;;;;4.30;2.60;;;;;;;;;;5115576;28;20039;-60
2023/02/11 02:52:39;;;;;;;3.40;2.27;;;;;;;;;;5115386;28;20031;-60
2023/02/11 02:55:17;;;;;;;5.43;2.73;;;;;;;;;;5076823;28;20046;-60
2023/02/11 02:58:00;;;;;;;3.00;2.47;;;;;;;;;;5074145;28;20025;-60
2023/02/11 03:00:50;;;;;;;5.43;2.43;;;;;;;;;;5072317;28;20142;-60
2023/02/11 03:03:23;;;;;;;3.40;2.57;;;;;;;;;;5080181;28;20038;-60
2023/02/11 03:06:13;;;;;;;7.67;3.27;;;;;;;;;;5088875;28;20028;-61
2023/02/11 03:08:58;;;;;;;3.70;2.27;;;;;;;;;;5041824;28;20036;-60
2023/02/11 03:11:33;;;;;;;7.47;2.55;;;;;;;;;;5091293;28;20028;-62
2023/02/11 03:14:04;;;;;;;3.20;2.35;;;;;;;;;;5106654;28;20011;-60
2023/02/11 03:16:37;;;;;;;9.97;4.93;;;;;;;;;;5095653;28;20390;-60
2023/02/11 03:19:17;;;;;;;7.30;3.90;;;;;;;;;;5114363;28;20015;-60
2023/02/11 03:21:52;;;;;;;7.97;4.97;;;;;;;;;;5095161;28;20188;-60
2023/02/11 03:24:26;;;;;;;6.22;4.20;;;;;;;;;;5090817;28;20032;-60
2023/02/11 03:27:00;;;;;;;16.30;5.00;;;;;;;;;;5088676;28;20035;-60
2023/02/11 03:29:51;;;;;;;18.97;4.43;;;;;;;;;;5088560;28;20062;-60
2023/02/11 03:32:42;;;;;;;9.43;4.67;;;;;;;;;;5089332;28;20483;-60
2023/02/11 03:35:19;;;;;;;8.63;4.07;;;;;;;;;;5113960;28;20036;-60
2023/02/11 03:38:01;;;;;;;3.70;2.63;;;;;;;;;;5113761;28;20016;-60
2023/02/11 03:40:33;;;;;;;17.17;4.67;;;;;;;;;;5113730;28;20076;-60
2023/02/11 03:43:03;;;;;;;5.37;3.73;;;;;;;;;;5109945;28;20088;-60
2023/02/11 03:45:34;;;;;;;5.07;2.80;;;;;;;;;;5091762;28;20056;-60
2023/02/11 03:48:07;;;;;;;3.13;2.53;;;;;;;;;;5088085;28;20086;-61
2023/02/11 03:50:44;;;;;;;6.40;3.13;;;;;;;;;;5088130;28;20050;-60
2023/02/11 03:53:12;;;;;;;3.03;2.33;;;;;;;;;;5091871;28;20028;-61
2023/02/11 03:55:40;;;;;;;3.13;2.20;;;;;;;;;;5088990;28;20024;-60
2023/02/11 03:58:16;;;;;;;4.50;3.33;;;;;;;;;;5093218;28;20486;-60
2023/02/11 04:00:50;;;;;;;6.50;2.33;;;;;;;;;;5093350;28;20024;-60
2023/02/11 04:03:23;;;;;;;3.67;2.60;;;;;;;;;;5099611;28;20035;-60
2023/02/11 04:05:54;;;;;;;5.37;3.20;;;;;;;;;;5113446;28;20058;-60
2023/02/11 04:08:21;;;;;;;2.27;1.97;;;;;;;;;;5110909;28;20478;-60
2023/02/11 04:10:51;;;;;;;4.80;2.50;;;;;;;;;;5108436;28;20493;-60
2023/02/11 04:13:19;;;;;;;16.00;4.43;;;;;;;;;;5100897;28;20032;-61
2023/02/11 04:15:49;;;;;;;7.70;3.30;;;;;;;;;;5089791;28;20051;-60
2023/02/11 04:18:25;;;;;;;3.70;3.20;;;;;;;;;;5089831;28;20493;-60
2023/02/11 04:21:02;;;;;;;9.53;5.17;;;;;;;;;;5092664;28;20024;-60
2023/02/11 04:23:32;;;;;;;15.23;3.33;;;;;;;;;;5101808;28;20031;-60
2023/02/11 04:26:00;;;;;;;6.43;4.03;;;;;;;;;;5112570;28;20023;-60
2023/02/11 04:28:30;;;;;;;7.23;4.97;;;;;;;;;;5113216;28;20074;-60
2023/02/11 04:31:00;;;;;;;4.67;4.13;;;;;;;;;;5110408;28;20490;-60
2023/02/11 04:33:27;;;;;;;7.27;4.70;;;;;;;;;;5098544;28;20032;-60
2023/02/11 04:35:55;;;;;;;5.43;3.67;;;;;;;;;;5087133;28;20028;-60
2023/02/11 04:38:25;;;;;;;5.60;4.17;;;;;;;;;;5088826;28;20055;-61
2023/02/11 04:40:52;;;;;;;6.63;4.77;;;;;;;;;;5088312;28;20027;-60
2023/02/11 04:43:25;;;;;;;6.23;4.83;;;;;;;;;;5099502;28;20553;-60
2023/02/11 04:45:57;;;;;;;7.40;4.43;;;;;;;;;;5112879;28;20024;-60
2023/02/11 04:48:28;;;;;;;5.27;4.23;;;;;;;;;;5112698;28;20489;-61
2023/02/11 04:50:55;;;;;;;7.00;4.57;;;;;;;;;;5112924;28;20023;-60
2023/02/11 04:53:26;;;;;;;5.60;4.47;;;;;;;;;;5104688;28;20023;-60
2023/02/11 04:55:53;;;;;;;8.07;4.13;;;;;;;;;;5094132;28;20035;-60
2023/02/11 04:58:21;;;;;;;5.53;4.10;;;;;;;;;;5087300;28;20016;-60
2023/02/11 05:00:48;;;;;;;7.07;4.73;;;;;;;;;;5092704;28;20508;-60
2023/02/11 05:03:16;;;;;;;7.40;4.27;;;;;;;;;;5097245;28;20066;-60
2023/02/11 05:05:43;;;;;;;6.30;4.57;;;;;;;;;;5091907;28;20502;-60
2023/02/11 05:08:11;;;;;;;4.80;3.83;;;;;;;;;;5092329;28;20129;-60
2023/02/11 05:10:42;;;;;;;10.50;4.37;;;;;;;;;;5110227;28;20076;-60
2023/02/11 05:13:09;;;;;;;3.97;3.03;;;;;;;;;;5095075;28;20545;-60
2023/02/11 05:15:36;;;;;;;4.50;3.73;;;;;;;;;;5112585;28;20026;-61
2023/02/11 05:18:04;;;;;;;4.80;3.37;;;;;;;;;;5101394;28;20046;-60
2023/02/11 05:20:31;;;;;;;4.87;4.17;;;;;;;;;;5086694;28;20044;-60
2023/02/11 05:22:59;;;;;;;10.63;2.53;;;;;;;;;;5086853;28;20021;-60
2023/02/11 05:25:29;;;;;;;9.57;4.13;;;;;;;;;;5087197;28;20382;-61
2023/02/11 05:27:59;;;;;;;5.80;4.07;;;;;;;;;;5095661;28;20016;-60
2023/02/11 05:30:27;;;;;;;4.37;3.10;;;;;;;;;;5112192;28;20111;-60
2023/02/11 05:33:00;;;;;;;4.53;3.20;;;;;;;;;;5112493;28;20016;-60
2023/02/11 05:35:27;;;;;;;7.37;3.53;;;;;;;;;;5112130;28;20011;-61
2023/02/11 05:38:00;;;;;;;4.30;3.30;;;;;;;;;;5105792;28;20470;-60
2023/02/11 05:40:27;;;;;;;4.80;2.80;;;;;;;;;;5089122;28;20429;-60
2023/02/11 05:42:57;;;;;;;4.23;2.20;;;;;;;;;;5086950;28;20032;-60
2023/02/11 05:45:25;;;;;;;4.03;1.97;;;;;;;;;;5086839;28;20119;-61
2023/02/11 05:47:55;;;;;;;3.60;2.83;;;;;;;;;;5092094;28;20073;-60
2023/02/11 05:50:22;;;;;;;2.00;1.50;;;;;;;;;;5112997;28;20031;-60
2023/02/11 05:52:49;;;;;;;3.07;1.80;;;;;;;;;;5114851;28;20814;-60
2023/02/11 05:55:17;;;;;;;1.90;1.40;;;;;;;;;;5095627;28;20374;-60
2023/02/11 05:57:44;;;;;;;3.93;2.10;;;;;;;;;;5099150;28;20024;-60
2023/02/11 06:00:11;;;;;;;4.33;2.20;;;;;;;;;;5115983;28;20047;-60
2023/02/11 06:02:39;;;;;;;7.77;2.53;;;;;;;;;;5108319;28;20471;-60
2023/02/11 06:05:06;;;;;;;3.53;1.30;;;;;;;;;;5090374;28;20043;-60
2023/02/11 06:07:33;;;;;;;2.10;1.60;;;;;;;;;;5092035;28;20128;-60
2023/02/11 06:10:03;;;;;;;2.40;1.67;;;;;;;;;;5104560;28;20379;-60
2023/02/11 06:12:33;;;;;;;1.57;1.30;;;;;;;;;;5091675;28;20108;-60
2023/02/11 06:15:01;;;;;;;1.63;1.17;;;;;;;;;;5094999;28;20532;-60
2023/02/11 06:17:37;;;;;;;3.27;1.10;;;;;;;;;;5096010;28;20482;-60
2023/02/11 06:20:06;;;;;;;5.10;1.13;;;;;;;;;;5114981;28;20015;-61
2023/02/11 06:22:33;;;;;;;1.53;1.07;;;;;;;;;;5115566;28;20151;-60
2023/02/11 06:25:04;;;;;;;0.83;0.50;;;;;;;;;;5113644;28;20114;-61
2023/02/11 06:27:43;;;;;;;1.23;1.00;;;;;;;;;;5108635;28;20097;-60
2023/02/11 06:30:16;;;;;;;1.53;1.03;;;;;;;;;;5089908;28;20028;-60
2023/02/11 06:32:54;;;;;;;;;;;;;;;;;;;;;
2023/02/11 06:35:34;;;;;;;1.27;0.87;;;;;;;;;;5091893;28;20016;-60
2023/02/11 06:38:04;;;;;;;2.10;0.70;;;;;;;;;;5099609;28;20015;-60
2023/02/11 06:40:38;;;;;;;7.63;0.97;;;;;;;;;;5115058;28;20012;-61
2023/02/11 06:43:09;;;;;;;0.20;0.20;;;;;;;;;;5114343;28;20020;-60
2023/02/11 06:45:39;;;;;;;0.60;0.40;;;;;;;;;;5115176;28;20089;-60
2023/02/11 06:48:10;;;;;;;0.67;0.40;;;;;;;;;;5105727;28;20036;-60
2023/02/11 06:50:37;;;;;;;0.60;0.40;;;;;;;;;;5089516;28;20447;-60
2023/02/11 06:53:04;;;;;;;0.20;0.20;;;;;;;;;;5089444;28;20114;-60
2023/02/11 06:55:35;;;;;;;0.83;0.57;;;;;;;;;;5089365;28;20016;-60
2023/02/11 06:58:05;;;;;;;0.63;0.40;;;;;;;;;;5092332;28;20047;-61
2023/02/11 07:00:33;;;;;;;0.20;0.13;;;;;;;;;;5093802;28;20496;-60
2023/02/11 07:03:03;;;;;;;0.90;0.40;;;;;;;;;;5085985;28;20013;-60
2023/02/11 07:05:33;;;;;;;0.00;0.00;;;;;;;;;;5073716;28;20055;-60
2023/02/11 07:08:03;;;;;;;0.17;0.17;;;;;;;;;;5080984;28;20024;-60
2023/02/11 07:10:33;;;;;;;0.17;0.10;;;;;;;;;;5110542;28;20027;-59
2023/02/11 07:13:04;;;;;;;0.33;0.20;;;;;;;;;;5106434;28;20020;-60
2023/02/11 07:15:34;;;;;;;0.70;0.40;;;;;;;;;;5089157;28;20020;-60
2023/02/11 07:18:02;;;;;;;0.27;0.23;;;;;;;;;;5088991;28;20016;-60
2023/02/11 07:20:32;;;;;;;0.20;0.20;;;;;;;;;;5097160;28;20035;-60
2023/02/11 07:22:59;;;;;;;0.50;0.20;;;;;;;;;;5113901;28;20144;-60
2023/02/11 07:25:35;;;;;;;0.13;0.10;;;;;;;;;;5114100;28;20024;-60
2023/02/11 07:28:09;;;;;;;0.00;0.00;;;;;;;;;;5114300;28;20431;-60
2023/02/11 07:30:42;;;;;;;0.10;0.10;;;;;;;;;;5114157;28;20024;-60
2023/02/11 07:33:16;;;;;;;0.00;0.00;;;;;;;;;;5100122;28;20075;-60
2023/02/11 07:35:49;;;;;;;0.10;0.10;;;;;;;;;;5088541;28;20028;-60
2023/02/11 07:38:16;;;;;;;0.33;0.27;;;;;;;;;;5088591;28;20418;-60
2023/02/11 07:40:44;;;;;;;0.30;0.13;;;;;;;;;;5088463;28;20030;-60
2023/02/11 07:43:11;;;;;;;0.43;0.27;;;;;;;;;;5092198;28;20020;-60
2023/02/11 07:45:56;;;;;;;1.37;0.40;;;;;;;;;;5104084;28;20036;-60
2023/02/11 07:48:30;;;;;;;3.30;0.30;;;;;;;;;;5113942;28;20023;-60
2023/02/11 07:51:05;;;;;;;1.10;0.37;;;;;;;;;;5113871;28;20024;-60
2023/02/11 07:53:33;;;;;;;0.10;0.00;;;;;;;;;;5106637;28;20012;-60
2023/02/11 07:56:03;;;;;;;0.20;0.20;;;;;;;;;;5088164;28;20016;-61
2023/02/11 07:58:37;;;;;;;0.00;0.00;;;;;;;;;;5106450;28;20020;-60
2023/02/11 08:01:06;;;;;;;0.00;0.00;;;;;;;;;;5108450;28;20571;-60
2023/02/11 08:03:40;;;;;;;0.03;0.00;;;;;;;;;;5095502;28;20425;-60
2023/02/11 08:06:12;;;;;;;0.38;0.25;;;;;;;;;;5092970;28;20012;-60
2023/02/11 08:08:45;;;;;;;0.00;0.00;;;;;;;;;;5094546;28;20024;-60
2023/02/11 08:11:18;;;;;;;0.70;0.37;;;;;;;;;;5112671;28;20024;-60
2023/02/11 08:13:45;;;;;;;0.00;0.00;;;;;;;;;;5113076;28;20019;-60
2023/02/11 08:16:32;;;;;;;0.00;0.00;;;;;;;;;;5112885;28;20404;-60
2023/02/11 08:19:01;;;;;;;0.20;0.10;;;;;;;;;;5108093;28;20047;-60
2023/02/11 08:21:28;;;;;;;0.00;0.00;;;;;;;;;;5099436;28;20028;-60
2023/02/11 08:23:56;;;;;;;0.00;0.00;;;;;;;;;;5087782;28;20098;-60
2023/02/11 08:26:25;;;;;;;0.00;0.00;;;;;;;;;;5088232;28;20024;-61
2023/02/11 08:28:53;;;;;;;0.00;0.00;;;;;;;;;;5092795;28;20061;-59
2023/02/11 08:31:25;;;;;;;0.00;0.00;;;;;;;;;;5092437;28;20055;-60
2023/02/11 08:33:53;;;;;;;0.00;0.00;;;;;;;;;;5103167;28;20019;-60
2023/02/11 08:36:22;;;;;;;0.23;0.17;;;;;;;;;;5112864;28;20018;-60
2023/02/11 08:38:53;;;;;;;0.13;0.07;;;;;;;;;;5111873;28;20023;-60
2023/02/11 08:41:24;;;;;;;0.00;0.00;;;;;;;;;;5106246;28;20027;-60
2023/02/11 08:43:52;;;;;;;0.00;0.00;;;;;;;;;;5107693;28;20075;-60
2023/02/11 08:46:19;;;;;;;0.00;0.00;;;;;;;;;;5107795;28;20027;-60
2023/02/11 08:48:47;;;;;;;0.00;0.00;;;;;;;;;;5107887;28;20023;-60
2023/02/11 08:51:21;;;;;;;0.00;0.00;;;;;;;;;;5100325;28;20077;-60
2023/02/11 08:53:49;;;;;;;0.00;0.00;;;;;;;;;;5092526;28;20023;-60
2023/02/11 08:56:20;;;;;;;0.00;0.00;;;;;;;;;;5074284;28;20051;-60
2023/02/11 08:58:48;;;;;;;0.00;0.00;;;;;;;;;;5092400;28;20035;-60
2023/02/11 09:01:33;;;;;;;0.20;0.10;;;;;;;;;;5090861;28;20077;-60
2023/02/11 09:04:01;;;;;;;4.28;0.30;;;;;;;;;;5070613;28;20040;-60
2023/02/11 09:06:31;;;;;;;0.73;0.20;;;;;;;;;;5081923;28;20039;-60
2023/02/11 09:08:59;;;;;;;0.00;0.00;;;;;;;;;;5087979;28;20379;-60
2023/02/11 09:11:36;;;;;;;0.03;0.03;;;;;;;;;;5088779;28;20031;-60
2023/02/11 09:14:04;;;;;;;0.03;0.00;;;;;;;;;;5092180;28;20035;-59
2023/02/11 09:16:33;;;;;;;0.60;0.17;;;;;;;;;;5092241;28;20059;-60
2023/02/11 09:19:01;;;;;;;0.23;0.17;;;;;;;;;;5092271;28;20060;-60
2023/02/11 09:21:29;;;;;;;0.00;0.00;;;;;;;;;;5106480;28;20038;-61
2023/02/11 09:23:57;;;;;;;0.00;0.00;;;;;;;;;;5114676;28;20504;-60
2023/02/11 09:26:31;;;;;;;0.00;0.00;;;;;;;;;;5111322;28;20024;-60
2023/02/11 09:28:59;;;;;;;0.00;0.00;;;;;;;;;;5111084;28;20069;-60
2023/02/11 09:31:28;;;;;;;0.00;0.00;;;;;;;;;;5111504;28;20035;-60
2023/02/11 09:34:03;;;;;;;0.37;0.30;;;;;;;;;;5095736;28;20024;-60
2023/02/11 09:36:32;;;;;;;;;;;;;;;;;;5096536;28;20433;-59
2023/02/11 09:39:06;;;;;;;0.60;0.33;;;;;;;;;;5095835;28;19910;-60
2023/02/11 09:41:54;;;;;;;0.30;0.30;;;;;;;;;;5095282;28;20016;-60
2023/02/11 09:44:36;;;;;;;0.47;0.33;;;;;;;;;;5098682;28;20020;-60
2023/02/11 09:47:14;;;;;;;0.43;0.13;;;;;;;;;;5113207;28;20026;-59
2023/02/11 09:49:44;;;;;;;2.27;0.30;;;;;;;;;;5111233;28;20024;-60
2023/02/11 09:52:30;;;;;;;0.40;0.17;;;;;;;;;;5110988;28;20024;-59
2023/02/11 09:54:57;;;;;;;;;;;;;;;;;;5092202;28;20028;-60
2023/02/11 09:57:31;;;;;;;0.03;0.00;;;;;;;;;;5103128;28;20376;-60
2023/02/11 10:00:02;;;;;;;0.00;0.00;;;;;;;;;;5115915;28;20023;-60
2023/02/11 10:02:54;;;;;;;0.00;0.00;;;;;;;;;;5112028;28;20048;-59
2023/02/11 10:05:25;;;;;;;0.20;0.10;;;;;;;;;;5079041;28;20067;-60
2023/02/11 10:08:08;;;;;;;0.00;0.00;;;;;;;;;;5095019;28;20551;-59
2023/02/11 10:10:56;;;;;;;0.17;0.10;;;;;;;;;;5090105;28;20024;-60
2023/02/11 10:13:29;;;;;;;0.00;0.00;;;;;;;;;;5090210;28;20024;-60
2023/02/11 10:16:11;;;;;;;0.20;0.20;;;;;;;;;;5103581;28;20434;-60
2023/02/11 10:18:41;;;;;;;0.23;0.20;;;;;;;;;;5111235;28;20027;-60
2023/02/11 10:21:29;;;;;;;0.50;0.30;;;;;;;;;;5115630;28;20180;-59
2023/02/11 10:23:59;;;;;;;0.07;0.07;;;;;;;;;;5115344;28;20042;-59
2023/02/11 10:26:28;;;;;;;0.17;0.17;;;;;;;;;;5112082;28;20046;-60
2023/02/11 10:29:10;;;;;;;0.53;0.20;;;;;;;;;;5094980;28;20027;-60
2023/02/11 10:31:43;;;;;;;0.10;0.07;;;;;;;;;;5093272;28;20352;-59
2023/02/11 10:34:11;;;;;;;0.30;0.10;;;;;;;;;;5088952;28;20024;-59
2023/02/11 10:36:41;;;;;;;0.17;0.03;;;;;;;;;;5089853;28;20385;-60
2023/02/11 10:39:22;;;;;;;0.00;0.00;;;;;;;;;;5089839;28;20489;-59
2023/02/11 10:41:49;;;;;;;0.63;0.20;;;;;;;;;;5107025;28;20020;-60
2023/02/11 10:44:25;;;;;;;0.10;0.00;;;;;;;;;;5114658;28;20031;-59
2023/02/11 10:47:02;;;;;;;0.00;0.00;;;;;;;;;;5115302;28;20454;-60
2023/02/11 10:49:38;;;;;;;0.17;0.10;;;;;;;;;;5114678;28;20042;-59
2023/02/11 10:52:20;;;;;;;0.60;0.30;;;;;;;;;;5112054;28;20039;-59
2023/02/11 10:55:03;;;;;;;0.23;0.20;;;;;;;;;;5089944;28;20597;-61
2023/02/11 10:57:44;;;;;;;0.37;0.20;;;;;;;;;;5089636;28;20263;-60
2023/02/11 11:00:18;;;;;;;0.10;0.10;;;;;;;;;;5089375;28;20024;-60
2023/02/11 11:02:46;;;;;;;0.23;0.23;;;;;;;;;;5083201;28;20455;-59
2023/02/11 11:05:16;;;;;;;0.20;0.20;;;;;;;;;;5083293;28;20093;-60
2023/02/11 11:07:53;;;;;;;0.00;0.00;;;;;;;;;;5094120;28;20081;-60
2023/02/11 11:10:42;;;;;;;0.07;0.07;;;;;;;;;;5094033;28;20024;-60
2023/02/11 11:13:30;;;;;;;0.30;0.20;;;;;;;;;;5094297;28;20070;-59
2023/02/11 11:16:15;;;;;;;0.10;0.10;;;;;;;;;;5092040;28;20083;-59
2023/02/11 11:18:42;;;;;;;;;;;;;;;;;;5108115;28;20032;-60
2023/02/11 11:21:14;;;;;;;0.30;0.20;;;;;;;;;;5109119;28;19910;-59
2023/02/11 11:23:47;;;;;;;1.03;0.20;;;;;;;;;;5090648;28;20288;-60
2023/02/11 11:26:18;;;;;;;0.40;0.17;;;;;;;;;;5111005;28;20023;-59
2023/02/11 11:29:14;;;;;;;0.00;0.00;;;;;;;;;;5113882;28;20264;-61
2023/02/11 11:31:48;;;;;;;0.07;0.07;;;;;;;;;;5056982;28;20667;-59
2023/02/11 11:34:21;;;;;;;0.00;0.00;;;;;;;;;;5073476;28;20257;-59
2023/02/11 11:36:49;;;;;;;0.00;0.00;;;;;;;;;;5073377;28;20272;-59
2023/02/11 11:39:22;;;;;;;0.20;0.13;;;;;;;;;;5069562;28;20608;-59
2023/02/11 11:42:13;;;;;;;0.50;0.17;;;;;;;;;;5083120;28;20287;-60
2023/02/11 11:44:40;;;;;;;0.10;0.10;;;;;;;;;;5095865;28;20302;-60
2023/02/11 11:47:13;;;;;;;0.10;0.10;;;;;;;;;;5107532;28;20310;-59
2023/02/11 11:49:51;;;;;;;0.30;0.17;;;;;;;;;;5112535;28;20298;-59
2023/02/11 11:52:21;;;;;;;0.23;0.20;;;;;;;;;;5113744;28;20750;-59
2023/02/11 11:54:53;;;;;;;0.00;0.00;;;;;;;;;;5111295;28;20289;-60
2023/02/11 11:57:28;;;;;;;0.20;0.20;;;;;;;;;;5113731;28;20247;-59
2023/02/11 11:59:58;;;;;;;0.05;0.05;;;;;;;;;;5113081;28;20580;-59
2023/02/11 12:02:52;;;;;;;0.30;0.30;;;;;;;;;;5105166;28;20012;-59
2023/02/11 12:05:26;;;;;;;0.70;0.50;;;;;;;;;;5089248;28;20376;-60
2023/02/11 12:08:12;;;;;;;1.07;0.50;;;;;;;;;;5107927;28;20268;-59
2023/02/11 12:10:56;;;;;;;0.17;0.10;;;;;;;;;;5109741;28;20260;-59
2023/02/11 12:13:44;;;;;;;0.90;0.47;;;;;;;;;;5113579;28;20287;-59
2023/02/11 12:16:32;;;;;;;0.23;0.20;;;;;;;;;;5113420;28;20590;-59
2023/02/11 12:19:23;;;;;;;1.13;0.73;;;;;;;;;;5097851;28;20347;-60
2023/02/11 12:22:02;;;;;;;0.50;0.47;;;;;;;;;;5092767;28;20356;-59
2023/02/11 12:24:33;;;;;;;0.83;0.50;;;;;;;;;;5088086;28;20288;-59
2023/02/11 12:27:12;;;;;;;0.30;0.27;;;;;;;;;;5087779;28;20257;-59
2023/02/11 12:29:40;;;;;;;0.20;0.20;;;;;;;;;;5090287;28;20256;-60
2023/02/11 12:32:16;;;;;;;0.10;0.10;;;;;;;;;;5089019;28;20307;-59
2023/02/11 12:34:53;;;;;;;0.10;0.10;;;;;;;;;;5112650;28;20260;-59
2023/02/11 12:37:32;;;;;;;0.53;0.13;;;;;;;;;;5113144;28;20249;-59
2023/02/11 12:40:27;;;;;;;0.40;0.30;;;;;;;;;;5113182;28;20335;-60
2023/02/11 12:43:15;;;;;;;0.10;0.10;;;;;;;;;;5098247;28;20731;-59
2023/02/11 12:46:16;;;;;;;0.00;0.00;;;;;;;;;;5091036;28;20284;-59
2023/02/11 12:48:49;;;;;;;0.50;0.50;;;;;;;;;;5068742;28;20300;-59
2023/02/11 12:51:31;;;;;;;4.43;0.80;;;;;;;;;;5086928;28;20769;-60
2023/02/11 12:54:15;;;;;;;1.47;0.30;;;;;;;;;;5087529;28;20264;-59
2023/02/11 12:56:42;;;;;;;0.37;0.37;;;;;;;;;;5089743;28;20292;-60
2023/02/11 12:59:29;;;;;;;6.27;0.67;;;;;;;;;;5074082;28;20601;-59
2023/02/11 13:02:01;;;;;;;0.87;0.63;;;;;;;;;;5092228;28;20252;-59
2023/02/11 13:04:46;;;;;;;1.03;0.43;;;;;;;;;;5072245;28;20851;-59
2023/02/11 13:07:37;;;;;;;0.77;0.28;;;;;;;;;;5100938;28;20282;-59
2023/02/11 13:10:07;;;;;;;0.10;0.10;;;;;;;;;;5095699;28;20126;-60
2023/02/11 13:15:22;;;;;;;3.47;0.50;;;;;;;;;;5107553;28;20290;-59
2023/02/11 13:17:56;;;;;;;0.50;0.40;;;;;;;;;;5103553;28;20747;-59
2023/02/11 13:20:37;;;;;;;10.63;0.65;;;;;;;;;;5091849;28;20261;-59
2023/02/11 13:23:18;;;;;;;0.33;0.33;;;;;;;;;;5092035;28;20032;-59
2023/02/11 13:25:56;;;;;;;0.53;0.43;;;;;;;;;;5092284;28;20285;-59
2023/02/11 13:28:26;;;;;;;10.40;1.77;;;;;;;;;;5092100;28;20383;-60
2023/02/11 13:31:01;;;;;;;2.97;1.00;;;;;;;;;;5102373;28;20279;-60
2023/02/11 13:33:38;;;;;;;8.88;1.25;;;;;;;;;;5112231;28;20339;-59
2023/02/11 13:36:08;;;;;;;0.20;0.20;;;;;;;;;;5107322;28;20465;-59
2023/02/11 13:38:39;;;;;;;1.03;0.80;;;;;;;;;;5107297;28;20279;-60
2023/02/11 13:41:22;;;;;;;2.07;0.80;;;;;;;;;;5096352;28;20322;-59
2023/02/11 13:43:59;;;;;;;0.20;0.20;;;;;;;;;;5086745;28;20289;-59
2023/02/11 13:46:42;;;;;;;5.63;1.27;;;;;;;;;;5091847;28;20249;-60
2023/02/11 13:49:18;;;;;;;11.70;0.60;;;;;;;;;;5092170;28;20558;-60
2023/02/11 13:51:45;;;;;;;1.07;0.80;;;;;;;;;;5089776;28;20735;-61
2023/02/11 13:54:24;;;;;;;8.87;1.17;;;;;;;;;;5099685;28;20267;-60
2023/02/11 13:57:10;;;;;;;1.77;0.80;;;;;;;;;;5110039;28;20946;-60
2023/02/11 13:59:40;;;;;;;1.37;0.70;;;;;;;;;;5107189;28;20248;-60
2023/02/11 14:11:15;;;;;;;1.43;0.87;;;;;;;;;;5095376;28;20035;-60
2023/02/11 14:13:48;;;;;;;0.60;0.50;;;;;;;;;;5095207;28;20099;-60
2023/02/11 14:16:17;;;;;;;1.33;0.80;;;;;;;;;;5101326;28;20420;-60
2023/02/11 14:18:59;;;;;;;0.37;0.30;;;;;;;;;;5114112;28;20059;-60
2023/02/11 14:21:39;;;;;;;0.57;0.33;;;;;;;;;;5101050;28;20559;-60
2023/02/11 14:24:19;;;;;;;1.07;0.77;;;;;;;;;;5089836;28;20486;-60
2023/02/11 14:27:07;;;;;;;1.30;0.87;;;;;;;;;;5089848;28;20484;-60
2023/02/11 14:30:00;;;;;;;1.13;0.70;;;;;;;;;;5092583;28;20024;-60
2023/02/11 14:32:31;;;;;;;11.07;0.93;;;;;;;;;;5067087;28;20066;-60
2023/02/11 14:35:14;;;;;;;1.27;0.67;;;;;;;;;;5115191;28;20039;-60
2023/02/11 14:38:02;;;;;;;0.30;0.30;;;;;;;;;;5115117;28;20035;-60
2023/02/11 14:40:35;;;;;;;0.67;0.50;;;;;;;;;;5115125;28;20486;-60
2023/02/11 14:43:12;;;;;;;5.87;1.00;;;;;;;;;;5095974;28;20028;-61
2023/02/11 14:45:39;;;;;;;2.37;1.03;;;;;;;;;;5089352;28;20047;-60
2023/02/11 14:48:17;;;;;;;3.07;0.70;;;;;;;;;;5089660;28;20487;-60
2023/02/11 14:50:55;;;;;;;2.53;0.87;;;;;;;;;;5089973;28;20024;-60
2023/02/11 14:53:24;;;;;;;4.00;0.83;;;;;;;;;;5104207;28;20051;-61
2023/02/11 14:55:55;;;;;;;3.00;0.97;;;;;;;;;;5094461;28;20421;-61
2023/02/11 14:58:24;;;;;;;0.60;0.53;;;;;;;;;;5094419;28;20032;-60
2023/02/11 15:00:58;;;;;;;0.50;0.40;;;;;;;;;;5075468;28;20379;-60
2023/02/11 15:03:26;;;;;;;0.90;0.70;;;;;;;;;;5080969;28;20103;-60
2023/02/11 15:06:19;;;;;;;1.07;0.67;;;;;;;;;;5089175;28;20100;-61
2023/02/11 15:08:49;;;;;;;0.63;0.40;;;;;;;;;;5084905;28;20036;-60
2023/02/11 15:11:18;;;;;;;0.77;0.37;;;;;;;;;;5094461;28;20023;-60
2023/02/11 15:13:49;;;;;;;2.63;0.63;;;;;;;;;;5100126;28;20055;-61
2023/02/11 15:16:19;;;;;;;3.30;0.73;;;;;;;;;;5094037;28;20089;-60
2023/02/11 15:18:50;;;;;;;12.17;0.70;;;;;;;;;;5095811;28;20059;-61
2023/02/11 15:21:25;;;;;;;0.27;0.20;;;;;;;;;;5093523;28;20024;-60
2023/02/11 15:23:57;;;;;;;0.43;0.40;;;;;;;;;;5093685;28;20062;-60
2023/02/11 15:26:30;;;;;;;13.60;0.60;;;;;;;;;;5090765;28;20099;-60
2023/02/11 15:29:01;;;;;;;0.77;0.50;;;;;;;;;;5101195;28;20024;-61
2023/02/11 15:31:28;;;;;;;1.90;0.50;;;;;;;;;;5109137;28;20039;-61
2023/02/11 15:33:56;;;;;;;0.67;0.47;;;;;;;;;;5108610;28;20107;-60